Time;durP1;ratioP1;P1;durP2;ratioP2;P2;SDS_P1;SDS_P2;PMS_P1;PMS_P2;Temp;Humidity;BMP_temperature;BMP_pressure;BME280_temperature;BME280_humidity;BME280_pressure;Samples;Min_cycle;Max_cycle;Signal;HPM_P1;HPM_P2
2023/02/22 00:02:11;;;;;;;6.30;5.80;;;;;;;10.52;54.57;97912.97;8412179;28;20224;-66
2023/02/22 00:06:16;;;;;;;6.73;6.13;;;;;;;10.42;54.48;97916.91;8411529;28;20235;-66
2023/02/22 00:10:19;;;;;;;7.40;6.70;;;;;;;10.42;54.47;97910.88;8411548;28;20233;-66
2023/02/22 00:14:26;;;;;;;7.77;7.07;;;;;;;10.35;54.97;97907.72;8411761;28;20234;-67
2023/02/22 00:18:29;;;;;;;7.47;6.77;;;;;;;10.33;55.02;97906.94;8411365;28;20237;-68
2023/02/22 00:22:32;;;;;;;7.27;6.67;;;;;;;10.35;54.60;97905.97;8411112;28;20258;-67
2023/02/22 00:26:35;;;;;;;6.87;6.27;;;;;;;10.25;54.53;97902.06;8411670;28;20230;-67
2023/02/22 00:30:42;;;;;;;6.73;6.13;;;;;;;10.25;54.52;97909.00;8410792;28;20235;-68
2023/02/22 00:34:45;;;;;;;6.73;6.13;;;;;;;10.14;54.76;97902.53;8410396;28;20234;-68
2023/02/22 00:38:51;;;;;;;7.13;6.53;;;;;;;10.25;54.14;97893.47;8411001;28;20224;-68
2023/02/22 00:42:54;;;;;;;7.47;6.87;;;;;;;10.14;54.20;97910.31;8410617;28;20228;-67
2023/02/22 00:46:58;;;;;;;9.07;7.17;;;;;;;10.30;53.85;97907.03;8410768;28;20348;-66
2023/02/22 00:51:01;;;;;;;8.83;8.00;;;;;;;9.39;54.18;97781.66;8410979;28;20230;-67
2023/02/22 00:55:04;;;;;;;8.63;7.83;;;;;;;10.17;53.82;97896.41;8410782;28;20230;-68
2023/02/22 00:59:07;;;;;;;7.57;6.80;;;;;;;10.04;53.97;97893.50;8410704;28;20238;-66
2023/02/22 01:03:13;;;;;;;9.33;7.03;;;;;;;10.00;54.65;97886.78;8410857;28;20251;-67
2023/02/22 01:07:16;;;;;;;8.00;7.20;;;;;;;10.18;53.87;97887.72;8410865;28;20412;-67
2023/02/22 01:11:21;;;;;;;8.30;7.50;;;;;;;9.96;54.11;97885.25;8411031;28;20229;-69
2023/02/22 01:15:29;;;;;;;8.37;7.30;;;;;;;9.37;53.81;97792.06;8410843;28;20511;-68
2023/02/22 01:19:33;;;;;;;7.23;6.53;;;;;;;9.82;53.07;97885.81;8416690;28;20241;-67
2023/02/22 01:23:36;;;;;;;6.30;5.70;;;;;;;9.87;52.47;97881.28;8416885;28;20237;-67
2023/02/22 01:27:39;;;;;;;5.90;5.40;;;;;;;9.68;53.24;97880.41;8416640;28;20522;-67
2023/02/22 01:31:42;;;;;;;6.60;6.00;;;;;;;9.48;52.77;97832.09;8415980;28;20240;-67
2023/02/22 01:35:48;;;;;;;5.80;5.40;;;;;;;9.62;53.42;97863.41;8416448;28;20234;-68
2023/02/22 01:39:51;;;;;;;5.47;5.07;;;;;;;9.62;53.16;97836.72;8416425;28;20230;-68
2023/02/22 01:43:54;;;;;;;5.33;4.93;;;;;;;9.72;53.13;97867.25;8416006;28;20530;-68
2023/02/22 01:47:59;;;;;;;6.80;6.10;;;;;;;9.48;52.99;97835.56;8415939;28;20547;-67
2023/02/22 01:52:13;;;;;;;7.40;6.70;;;;;;;9.37;53.52;97819.66;8415534;28;20222;-68
2023/02/22 01:56:18;;;;;;;10.25;7.75;;;;;;;10.26;51.86;97854.59;8413364;28;20400;-67
2023/02/22 02:00:23;;;;;;;10.67;8.20;;;;;;;9.50;54.74;97851.84;8415777;28;20501;-67
2023/02/22 02:04:26;;;;;;;11.13;8.60;;;;;;;9.51;54.69;97850.91;8415696;28;20256;-68
2023/02/22 02:08:36;;;;;;;17.67;7.97;;;;;;;9.38;54.73;97842.00;8415067;28;20402;-68
2023/02/22 02:12:38;;;;;;;8.90;8.00;;;;;;;9.35;54.32;97832.63;8415320;28;20219;-68
2023/02/22 02:16:45;;;;;;;9.20;7.13;;;;;;;9.35;54.72;97836.97;8381605;28;20225;-68
2023/02/22 02:20:59;;;;;;;8.53;7.10;;;;;;;9.17;55.04;97830.78;8381739;28;20538;-68
2023/02/22 02:25:30;;;;;;;9.63;7.30;;;;;;;9.35;54.48;97832.63;8382385;28;20225;-68
2023/02/22 02:30:22;;;;;;;8.67;7.20;;;;;;;9.33;54.25;97823.28;8380553;28;20224;-68
2023/02/22 02:34:31;;;;;;;9.90;7.53;;;;;;;9.33;54.04;97798.25;8381304;28;20232;-68
2023/02/22 02:38:39;;;;;;;9.13;7.93;;;;;;;9.14;54.79;97824.03;8381785;28;20226;-68
2023/02/22 02:42:44;;;;;;;9.43;7.40;;;;;;;8.99;54.89;97819.47;8380631;28;20556;-65
2023/02/22 02:46:51;;;;;;;11.20;8.03;;;;;;;9.18;54.57;97814.41;8381516;28;20247;-66
2023/02/22 02:50:56;;;;;;;9.13;7.90;;;;;;;9.02;54.45;97796.09;8381455;28;20233;-66
2023/02/22 02:55:00;;;;;;;13.10;8.80;;;;;;;9.03;55.07;97809.88;8381047;28;20551;-67
2023/02/22 02:59:02;;;;;;;11.07;8.20;;;;;;;9.04;54.38;97794.28;8386487;28;20225;-66
2023/02/22 03:03:20;;;;;;;9.20;8.20;;;;;;;8.32;53.76;97675.81;8380371;28;20247;-66
2023/02/22 03:07:37;;;;;;;9.20;8.20;;;;;;;8.85;54.17;97806.25;8380593;28;20229;-67
2023/02/22 03:11:47;;;;;;;8.50;7.67;;;;;;;9.00;54.06;97803.91;8380446;28;20242;-67
2023/02/22 03:15:53;;;;;;;8.27;7.40;;;;;;;8.97;53.66;97798.03;8380004;28;20277;-68
2023/02/22 03:20:00;;;;;;;7.70;6.90;;;;;;;9.04;53.54;97791.69;8380126;28;20244;-67
2023/02/22 03:24:09;;;;;;;7.83;7.03;;;;;;;8.93;53.63;97784.41;8380304;28;20229;-68
2023/02/22 03:28:15;;;;;;;8.53;7.50;;;;;;;8.96;53.48;97783.44;8379591;28;20221;-67
2023/02/22 03:32:21;;;;;;;7.90;7.10;;;;;;;8.92;53.63;97780.13;8380118;28;20237;-68
2023/02/22 03:36:26;;;;;;;8.53;7.63;;;;;;;8.53;53.70;97747.28;8379920;28;20530;-68
2023/02/22 03:40:34;;;;;;;7.67;6.97;;;;;;;8.88;53.24;97778.56;8379492;28;20228;-68
2023/02/22 03:44:39;;;;;;;7.00;6.40;;;;;;;8.67;53.16;97784.59;8379801;28;20533;-68
2023/02/22 03:48:46;;;;;;;7.10;6.50;;;;;;;8.82;52.92;97780.56;8378822;28;20229;-65
2023/02/22 03:52:49;;;;;;;7.40;6.63;;;;;;;8.80;52.74;97775.47;8378966;28;20229;-66
2023/02/22 03:56:56;;;;;;;7.77;6.80;;;;;;;8.82;53.06;97790.91;8379347;28;20224;-66
2023/02/22 04:00:59;;;;;;;7.60;6.90;;;;;;;8.71;53.23;97793.91;8378844;28;20239;-66
2023/02/22 04:05:02;;;;;;;7.40;6.60;;;;;;;8.44;53.12;97749.38;8378935;28;20247;-66
2023/02/22 04:09:07;;;;;;;7.60;6.80;;;;;;;8.68;52.63;97784.56;8379112;28;20368;-66
2023/02/22 04:13:13;;;;;;;8.80;7.90;;;;;;;8.56;52.78;97783.25;8378346;28;20224;-66
2023/02/22 04:17:16;;;;;;;9.40;7.93;;;;;;;8.47;53.56;97777.63;8378481;28;20228;-66
2023/02/22 04:21:19;;;;;;;8.40;7.50;;;;;;;8.67;53.46;97780.28;8378533;28;20240;-66
2023/02/22 04:25:23;;;;;;;7.40;6.70;;;;;;;8.56;53.14;97775.53;8378308;28;20248;-66
2023/02/22 04:29:27;;;;;;;10.27;8.53;;;;;;;8.58;54.00;97778.88;8378185;28;20224;-66
2023/02/22 04:33:30;;;;;;;7.80;7.03;;;;;;;8.57;54.85;97778.97;8378459;28;20244;-67
2023/02/22 04:37:33;;;;;;;6.93;6.23;;;;;;;8.59;54.62;97772.00;8378006;28;20228;-67
2023/02/22 04:41:36;;;;;;;6.80;6.00;;;;;;;8.62;54.86;97771.88;8377817;28;20236;-66
2023/02/22 04:45:40;;;;;;;6.33;5.83;;;;;;;8.34;56.50;97766.91;8377822;28;20229;-66
2023/02/22 04:49:44;;;;;;;6.40;5.77;;;;;;;8.38;56.08;97773.66;8377333;28;20224;-66
2023/02/22 04:53:47;;;;;;;6.30;5.70;;;;;;;8.38;56.24;97753.84;8383340;28;20232;-66
2023/02/22 04:57:50;;;;;;;8.73;6.47;;;;;;;8.35;56.27;97769.44;8384465;28;20323;-67
2023/02/22 05:01:54;;;;;;;6.43;5.80;;;;;;;8.38;56.91;97763.31;8384058;28;20552;-67
2023/02/22 05:06:00;;;;;;;5.83;4.93;;;;;;;8.43;56.70;97758.84;8384714;28;20424;-67
2023/02/22 05:10:02;;;;;;;6.57;5.40;;;;;;;8.36;56.76;97760.78;8384480;28;20262;-67
2023/02/22 05:14:05;;;;;;;7.93;6.17;;;;;;;8.59;56.47;97759.09;8384257;28;20232;-66
2023/02/22 05:18:09;;;;;;;10.53;6.37;;;;;;;8.68;56.33;97756.16;8384014;28;20231;-67
2023/02/22 05:22:12;;;;;;;12.03;6.47;;;;;;;8.48;57.52;97746.59;8383725;28;20248;-66
2023/02/22 05:26:17;;;;;;;20.77;5.87;;;;;;;8.49;57.94;97747.44;8383914;28;20284;-67
2023/02/22 05:30:23;;;;;;;37.70;6.70;;;;;;;8.41;57.72;97739.97;8383592;28;20417;-67
2023/02/22 05:34:27;;;;;;;46.43;7.33;;;;;;;8.43;58.13;97745.94;8383387;28;20235;-66
2023/02/22 05:38:30;;;;;;;36.27;7.43;;;;;;;8.41;58.37;97747.69;8383478;28;20236;-66
2023/02/22 05:42:32;;;;;;;19.40;6.70;;;;;;;8.32;58.30;97719.69;8383235;28;20225;-66
2023/02/22 05:46:35;;;;;;;57.33;7.67;;;;;;;8.47;57.91;97744.06;8383032;28;20240;-66
2023/02/22 05:50:39;;;;;;;57.33;7.67;;;;;;;8.47;57.68;97754.41;8383503;28;20229;-66
2023/02/22 05:54:42;;;;;;;16.67;7.03;;;;;;;8.50;58.31;97739.63;8383033;28;20502;-67
2023/02/22 05:58:45;;;;;;;33.17;6.73;;;;;;;8.43;58.62;97745.09;8383332;28;20220;-67
2023/02/22 06:02:47;;;;;;;64.30;7.37;;;;;;;8.28;58.24;97739.63;8382346;28;20228;-67
2023/02/22 06:06:52;;;;;;;32.17;6.93;;;;;;;8.45;58.34;97753.63;8383119;28;20249;-67
2023/02/22 06:10:55;;;;;;;27.53;6.47;;;;;;;8.43;57.61;97742.53;8383056;28;20264;-66
2023/02/22 06:14:58;;;;;;;16.87;6.00;;;;;;;8.23;58.21;97714.00;8383382;28;20235;-66
2023/02/22 06:19:01;;;;;;;38.93;6.43;;;;;;;8.29;57.91;97733.56;8383176;28;20296;-66
2023/02/22 06:23:05;;;;;;;13.33;5.50;;;;;;;8.48;57.72;97744.03;8381803;28;20351;-66
2023/02/22 06:27:08;;;;;;;14.30;6.23;;;;;;;8.50;57.19;97749.97;8382848;28;20232;-66
2023/02/22 06:31:11;;;;;;;28.93;7.10;;;;;;;8.36;57.44;97752.22;8381447;28;20221;-66
2023/02/22 06:35:14;;;;;;;13.80;7.43;;;;;;;8.53;57.07;97756.72;8382567;28;20347;-67
2023/02/22 06:39:18;;;;;;;16.47;8.90;;;;;;;8.49;57.07;97755.19;8380511;28;20221;-66
2023/02/22 06:43:21;;;;;;;18.77;8.57;;;;;;;8.50;57.21;97759.44;8381120;28;20237;-66
2023/02/22 06:47:24;;;;;;;13.53;8.07;;;;;;;8.44;57.27;97757.13;8381798;28;20229;-68
2023/02/22 06:51:27;;;;;;;7.93;6.40;;;;;;;8.60;56.15;97761.63;8381579;28;20518;-67
2023/02/22 06:55:34;;;;;;;8.27;7.47;;;;;;;8.74;55.92;97750.72;8380828;28;20235;-67
2023/02/22 06:59:36;;;;;;;8.20;6.60;;;;;;;8.67;55.65;97736.38;8381277;28;20409;-67
2023/02/22 07:03:41;;;;;;;9.90;7.13;;;;;;;8.73;56.15;97751.63;8381654;28;20547;-67
2023/02/22 07:07:43;;;;;;;8.00;6.40;;;;;;;8.92;55.75;97749.13;8379965;28;20229;-67
2023/02/22 07:11:48;;;;;;;7.70;6.23;;;;;;;9.02;55.86;97759.09;8380645;28;20228;-68
2023/02/22 07:15:50;;;;;;;8.03;5.50;;;;;;;8.99;56.22;97749.72;8379485;28;20536;-67
2023/02/22 07:19:53;;;;;;;6.40;5.10;;;;;;;9.10;55.61;97746.69;8380625;28;20338;-69
2023/02/22 07:23:57;;;;;;;5.33;4.83;;;;;;;9.17;55.67;97751.53;8380246;28;20241;-68
2023/02/22 07:28:01;;;;;;;5.67;5.07;;;;;;;9.33;55.29;97751.75;8380073;28;20230;-68
2023/02/22 07:32:05;;;;;;;5.23;4.73;;;;;;;9.38;55.19;97744.59;8380343;28;20241;-68
2023/02/22 07:36:08;;;;;;;5.70;5.07;;;;;;;9.38;55.48;97748.94;8379859;28;20220;-66
2023/02/22 07:40:11;;;;;;;5.50;4.83;;;;;;;9.49;55.38;97745.91;8379689;28;20729;-67
2023/02/22 07:44:16;;;;;;;6.03;5.07;;;;;;;9.67;54.89;97745.13;8379584;28;20506;-67
2023/02/22 07:48:21;;;;;;;6.43;5.20;;;;;;;9.71;55.74;97748.38;8379669;28;20226;-68
2023/02/22 07:52:24;;;;;;;6.90;5.07;;;;;;;9.23;54.92;97617.81;8379486;28;20239;-68
2023/02/22 07:56:27;;;;;;;8.53;5.47;;;;;;;9.68;56.22;97759.69;8379564;28;20552;-68
2023/02/22 08:00:32;;;;;;;8.07;6.60;;;;;;;9.81;56.53;97754.84;8379429;28;20222;-68
2023/02/22 08:04:35;;;;;;;8.33;7.03;;;;;;;9.97;56.17;97748.03;8379002;28;20237;-67
2023/02/22 08:08:38;;;;;;;7.80;6.77;;;;;;;10.38;55.31;97741.91;8379000;28;20546;-67
2023/02/22 08:12:44;;;;;;;13.87;6.97;;;;;;;11.08;59.82;97749.75;8378442;28;20223;-68
2023/02/22 08:16:49;;;;;;;8.67;6.57;;;;;;;10.95;54.94;97744.38;8378739;28;20230;-67
2023/02/22 08:20:53;;;;;;;8.47;6.13;;;;;;;10.69;53.67;97694.66;8378868;28;20397;-67
2023/02/22 08:24:57;;;;;;;7.20;6.13;;;;;;;10.67;56.32;97745.69;8368935;28;20245;-68
2023/02/22 08:29:01;;;;;;;8.17;6.60;;;;;;;10.68;55.89;97737.03;8377801;28;20746;-69
2023/02/22 08:33:05;;;;;;;6.17;5.57;;;;;;;11.96;53.83;97743.53;8378583;28;20277;-69
2023/02/22 08:37:09;;;;;;;7.27;6.57;;;;;;;11.89;52.85;97743.03;8378472;28;20262;-68
2023/02/22 08:41:12;;;;;;;6.90;5.10;;;;;;;12.51;52.73;97737.94;8377962;28;20247;-69
2023/02/22 08:45:15;;;;;;;6.20;5.60;;;;;;;12.32;53.60;97740.72;8377786;28;20235;-69
2023/02/22 08:49:20;;;;;;;5.63;5.13;;;;;;;12.74;52.57;97734.94;8376936;28;20237;-68
2023/02/22 08:53:23;;;;;;;7.73;6.77;;;;;;;13.29;50.73;97745.59;8377715;28;20224;-68
2023/02/22 08:57:25;;;;;;;8.43;6.83;;;;;;;12.85;53.01;97740.38;8377898;28;20236;-68
2023/02/22 09:01:29;;;;;;;7.27;6.57;;;;;;;13.81;51.68;97746.03;8378255;28;20348;-67
2023/02/22 09:05:37;;;;;;;10.47;7.00;;;;;;;13.67;51.23;97741.69;8377723;28;20237;-68
2023/02/22 09:09:42;;;;;;;7.10;6.50;;;;;;;14.59;49.09;97742.97;8377536;28;20251;-69
2023/02/22 09:13:45;;;;;;;7.67;6.87;;;;;;;14.78;49.67;97743.44;8377058;28;20230;-69
2023/02/22 09:17:47;;;;;;;8.30;7.30;;;;;;;14.55;49.85;97741.44;8377720;28;20231;-67
2023/02/22 09:21:54;;;;;;;9.10;6.27;;;;;;;15.78;57.03;97735.94;8377182;28;20233;-68
2023/02/22 09:25:58;;;;;;;8.07;7.10;;;;;;;15.30;49.86;97743.53;8377253;28;20246;-68
2023/02/22 09:30:02;;;;;;;8.47;7.63;;;;;;;14.20;52.59;97731.47;8377406;28;20239;-67
2023/02/22 09:34:12;;;;;;;8.23;7.43;;;;;;;14.55;51.99;97731.84;8377541;28;20411;-67
2023/02/22 09:38:19;;;;;;;8.93;8.03;;;;;;;14.29;51.83;97725.69;8380358;28;20432;-67
2023/02/22 09:42:28;;;;;;;9.00;8.07;;;;;;;14.79;49.73;97726.00;8383439;28;20426;-67
2023/02/22 09:46:33;;;;;;;8.67;7.93;;;;;;;13.88;51.64;97729.13;8383208;28;20228;-67
2023/02/22 09:50:41;;;;;;;9.10;7.40;;;;;;;15.29;48.15;97705.34;8366545;28;20240;-67
2023/02/22 09:54:50;;;;;;;9.57;8.67;;;;;;;15.09;48.54;97723.16;8382874;28;20232;-68
2023/02/22 09:58:55;;;;;;;9.47;8.30;;;;;;;14.60;49.48;97710.72;8383676;28;20240;-69
2023/02/22 10:03:08;;;;;;;9.73;8.73;;;;;;;15.00;47.81;97718.56;8383316;28;20245;-69
2023/02/22 10:07:17;;;;;;;9.97;8.20;;;;;;;15.39;47.41;97709.00;8383177;28;20224;-69
2023/02/22 10:11:32;;;;;;;9.13;8.27;;;;;;;15.09;48.97;97717.94;8383261;28;20224;-69
2023/02/22 10:15:42;;;;;;;9.67;8.10;;;;;;;16.01;45.39;97719.53;8382764;28;20240;-69
2023/02/22 10:19:53;;;;;;;8.07;7.27;;;;;;;16.02;46.26;97713.34;8382318;28;20298;-67
2023/02/22 10:24:04;;;;;;;7.90;7.20;;;;;;;15.91;46.91;97702.81;8381962;28;20496;-67
2023/02/22 10:28:13;;;;;;;10.37;8.60;;;;;;;16.56;44.65;97713.88;8381967;28;20236;-67
2023/02/22 10:32:20;;;;;;;8.70;7.83;;;;;;;15.97;46.66;97710.22;8381947;28;20626;-68
2023/02/22 10:36:23;;;;;;;9.10;7.83;;;;;;;16.06;46.41;97684.41;8382209;28;20256;-68
2023/02/22 10:40:31;;;;;;;8.87;7.80;;;;;;;16.90;44.43;97687.91;8382154;28;20235;-67
2023/02/22 10:44:37;;;;;;;8.17;7.30;;;;;;;16.79;43.81;97686.03;8381963;28;20426;-68
2023/02/22 10:48:42;;;;;;;9.63;7.83;;;;;;;17.07;44.17;97703.16;8381221;28;20231;-69
2023/02/22 10:52:44;;;;;;;8.50;7.40;;;;;;;16.95;44.63;97702.31;8389063;28;20244;-69
2023/02/22 10:56:49;;;;;;;7.47;6.77;;;;;;;17.02;44.54;97701.84;8381303;28;20243;-66
2023/02/22 11:00:53;;;;;;;9.20;8.13;;;;;;;17.36;43.58;97694.88;8380972;28;20559;-67
2023/02/22 11:04:57;;;;;;;9.13;7.80;;;;;;;17.66;43.48;97694.31;8380871;28;20552;-67
2023/02/22 11:09:10;;;;;;;8.50;7.70;;;;;;;17.44;43.19;97668.13;8381005;28;20236;-66
2023/02/22 11:13:24;;;;;;;7.50;6.80;;;;;;;18.07;42.56;97665.88;8380837;28;20226;-68
2023/02/22 11:17:31;;;;;;;7.13;6.43;;;;;;;18.16;42.58;97665.97;8380841;28;20236;-68
2023/02/22 11:21:34;;;;;;;7.37;6.70;;;;;;;18.54;40.99;97674.28;8380775;28;20232;-66
2023/02/22 11:25:41;;;;;;;8.03;6.80;;;;;;;17.89;42.66;97653.25;8380403;28;20235;-67
2023/02/22 11:29:49;;;;;;;8.60;7.47;;;;;;;17.89;42.38;97658.50;8412920;28;20240;-67
2023/02/22 11:33:56;;;;;;;8.03;7.23;;;;;;;18.51;41.82;97656.22;8413142;28;20258;-67
2023/02/22 11:38:11;;;;;;;7.83;7.13;;;;;;;18.61;41.54;97653.66;8413185;28;20443;-67
2023/02/22 11:42:21;;;;;;;9.00;8.20;;;;;;;17.59;43.57;97649.47;8412905;28;20427;-66
2023/02/22 11:46:27;;;;;;;7.57;6.87;;;;;;;18.10;42.61;97636.78;8412869;28;20234;-67
2023/02/22 11:50:34;;;;;;;8.50;7.07;;;;;;;18.30;42.75;97630.78;8412454;28;20222;-66
2023/02/22 11:54:45;;;;;;;8.00;7.20;;;;;;;18.76;42.04;97631.41;8412705;28;20560;-66
2023/02/22 11:58:50;;;;;;;8.87;7.93;;;;;;;17.85;43.55;97628.25;8378381;28;20308;-67
2023/02/22 12:03:19;;;;;;;9.53;7.07;;;;;;;18.24;42.15;97612.06;8378892;28;20236;-67
2023/02/22 12:07:51;;;;;;;7.90;7.10;;;;;;;18.54;42.45;97612.22;8378469;28;20229;-67
2023/02/22 12:12:00;;;;;;;7.50;6.83;;;;;;;18.39;42.42;97602.13;8376294;28;20241;-67
2023/02/22 12:16:09;;;;;;;7.43;6.73;;;;;;;18.66;42.27;97599.06;8378916;28;20227;-67
2023/02/22 12:20:20;;;;;;;8.70;7.77;;;;;;;18.55;41.82;97590.25;8378901;28;20228;-67
2023/02/22 12:24:27;;;;;;;7.90;7.10;;;;;;;18.76;42.08;97589.44;8378456;28;20229;-67
2023/02/22 12:28:34;;;;;;;7.67;6.93;;;;;;;18.56;42.38;97591.94;8378741;28;20244;-67
2023/02/22 12:32:41;;;;;;;8.97;8.17;;;;;;;17.63;44.14;97583.75;8378339;28;20298;-67
2023/02/22 12:36:46;;;;;;;8.67;7.80;;;;;;;17.34;45.10;97585.13;8411016;28;20249;-67
2023/02/22 12:40:56;;;;;;;8.20;6.50;;;;;;;18.14;43.48;97576.16;8411952;28;20317;-68
2023/02/22 12:45:05;;;;;;;8.03;7.23;;;;;;;17.91;43.63;97574.56;8411739;28;20220;-66
2023/02/22 12:49:16;;;;;;;8.07;7.23;;;;;;;17.58;44.72;97577.09;8411860;28;20240;-67
2023/02/22 12:53:22;;;;;;;7.67;6.83;;;;;;;17.96;43.68;97569.78;8411498;28;20223;-68
2023/02/22 12:57:36;;;;;;;6.97;6.37;;;;;;;18.50;43.29;97575.88;8411308;28;20219;-69
2023/02/22 13:01:41;;;;;;;9.87;7.50;;;;;;;17.52;44.62;97545.34;8411480;28;20307;-69
2023/02/22 13:05:52;;;;;;;9.57;6.43;;;;;;;18.47;42.29;97561.25;8410839;28;20231;-69
2023/02/22 13:10:22;;;;;;;6.93;6.23;;;;;;;19.13;42.03;97557.47;8410935;28;20224;-68
2023/02/22 13:14:38;;;;;;;6.50;5.90;;;;;;;19.16;41.43;97551.97;8415918;28;20228;-69
2023/02/22 13:18:47;;;;;;;6.97;6.27;;;;;;;19.43;41.08;97543.50;8384601;28;20228;-70
2023/02/22 13:22:54;;;;;;;7.07;6.43;;;;;;;18.94;41.51;97519.72;8384334;28;20233;-67
2023/02/22 13:27:02;;;;;;;6.40;5.80;;;;;;;19.34;40.98;97518.03;8384578;28;20543;-69
2023/02/22 13:31:18;;;;;;;6.37;5.80;;;;;;;19.78;40.28;97528.25;8384966;28;20221;-69
2023/02/22 13:35:34;;;;;;;7.03;6.07;;;;;;;19.40;41.22;97529.81;8384789;28;20229;-69
2023/02/22 13:40:10;;;;;;;7.27;6.40;;;;;;;19.39;41.24;97533.41;8384460;28;20247;-69
2023/02/22 13:44:54;;;;;;;7.80;6.97;;;;;;;18.72;41.79;97515.44;8383970;28;20222;-68
2023/02/22 13:49:20;;;;;;;6.67;6.07;;;;;;;18.81;41.70;97529.59;8384125;28;20225;-70
2023/02/22 13:53:27;;;;;;;7.30;6.30;;;;;;;19.17;41.63;97527.38;8384376;28;20228;-69
2023/02/22 13:57:34;;;;;;;6.17;5.57;;;;;;;19.42;41.22;97517.38;8383773;28;20225;-69
2023/02/22 14:01:42;;;;;;;5.77;5.17;;;;;;;19.33;41.49;97525.09;8383410;28;20233;-68
2023/02/22 14:05:51;;;;;;;7.07;6.30;;;;;;;18.79;42.14;97525.38;8382790;28;20559;-68
2023/02/22 14:09:56;;;;;;;6.43;5.83;;;;;;;18.88;41.98;97524.63;8383193;28;20283;-68
2023/02/22 14:14:26;;;;;;;9.90;6.10;;;;;;;19.21;41.69;97518.31;8382611;28;20237;-68
2023/02/22 14:18:30;;;;;;;5.43;4.93;;;;;;;19.19;42.37;97514.97;8347496;28;20238;-68
2023/02/22 14:22:46;;;;;;;5.97;5.37;;;;;;;18.89;41.36;97514.03;8382337;28;20240;-68
2023/02/22 14:26:56;;;;;;;5.30;4.80;;;;;;;19.03;41.65;97515.44;8414917;28;20295;-69
2023/02/22 14:31:11;;;;;;;5.20;4.73;;;;;;;19.06;41.21;97491.59;8415481;28;20429;-68
2023/02/22 14:35:25;;;;;;;4.50;4.10;;;;;;;18.80;41.87;97511.31;8415473;28;20239;-69
2023/02/22 14:39:43;;;;;;;4.70;4.30;;;;;;;18.72;42.42;97515.44;8415310;28;20430;-68
2023/02/22 14:43:46;;;;;;;4.43;4.03;;;;;;;18.71;42.61;97513.75;8415046;28;20224;-68
2023/02/22 14:47:59;;;;;;;4.83;4.43;;;;;;;18.57;42.10;97501.00;8415187;28;20510;-67
2023/02/22 14:52:07;;;;;;;5.27;4.00;;;;;;;18.35;42.96;97504.56;8414640;28;20232;-66
2023/02/22 14:56:19;;;;;;;4.30;3.90;;;;;;;18.30;43.03;97504.16;8414537;28;20534;-67
2023/02/22 15:00:29;;;;;;;4.10;3.70;;;;;;;18.17;42.87;97510.38;8414597;28;20326;-68
2023/02/22 15:04:32;;;;;;;3.70;3.40;;;;;;;18.10;43.78;97497.91;8414374;28;20542;-69
2023/02/22 15:08:40;;;;;;;4.40;4.00;;;;;;;17.86;44.66;97501.59;8414182;28;20252;-69
2023/02/22 15:13:09;;;;;;;5.03;4.53;;;;;;;17.82;44.57;97496.69;8413214;28;20216;-69
2023/02/22 15:17:16;;;;;;;4.33;3.97;;;;;;;17.82;45.31;97499.31;8413999;28;20572;-68
2023/02/22 15:21:23;;;;;;;4.07;3.70;;;;;;;17.91;44.94;97490.72;8413488;28;20235;-69
2023/02/22 15:25:29;;;;;;;4.70;3.70;;;;;;;17.73;45.83;97496.50;8413318;28;20232;-68
2023/02/22 15:29:36;;;;;;;3.70;3.40;;;;;;;17.69;45.97;97494.25;8413889;28;20273;-68
2023/02/22 15:33:40;;;;;;;5.60;5.00;;;;;;;17.62;46.27;97491.28;8414098;28;20228;-68
2023/02/22 15:37:43;;;;;;;5.70;4.40;;;;;;;17.63;46.27;97489.50;8411950;28;20519;-69
2023/02/22 15:41:47;;;;;;;4.83;3.73;;;;;;;17.50;46.34;97468.72;8413851;28;20439;-67
2023/02/22 15:45:52;;;;;;;5.77;4.03;;;;;;;17.49;46.81;97477.53;8413123;28;20258;-68
2023/02/22 15:50:15;;;;;;;6.40;4.70;;;;;;;17.46;47.52;97478.59;8413315;28;20231;-69
2023/02/22 15:54:18;;;;;;;8.20;5.10;;;;;;;17.32;47.77;97474.47;8412578;28;20530;-67
2023/02/22 15:58:29;;;;;;;5.17;4.17;;;;;;;17.22;48.65;97472.72;8412653;28;20508;-68
2023/02/22 16:02:37;;;;;;;8.53;4.53;;;;;;;17.06;49.23;97468.69;8412263;28;20228;-69
2023/02/22 16:06:42;;;;;;;7.93;5.03;;;;;;;17.09;49.49;97480.69;8412458;28;20292;-68
2023/02/22 16:10:52;;;;;;;8.93;4.77;;;;;;;17.04;49.55;97482.81;8411580;28;20220;-69
2023/02/22 16:14:55;;;;;;;5.03;4.07;;;;;;;16.84;50.07;97480.00;8412081;28;20251;-69
2023/02/22 16:19:34;;;;;;;4.43;3.27;;;;;;;16.91;49.76;97477.75;8412339;28;20237;-69
2023/02/22 16:23:46;;;;;;;3.57;3.23;;;;;;;16.74;50.25;97474.59;8411053;28;20248;-68
2023/02/22 16:27:51;;;;;;;4.27;2.63;;;;;;;16.69;50.52;97483.75;8378277;28;20421;-68
2023/02/22 16:31:54;;;;;;;3.97;3.37;;;;;;;16.59;50.32;97473.19;8378676;28;20233;-68
2023/02/22 16:35:58;;;;;;;6.40;5.33;;;;;;;16.49;50.57;97469.63;8378009;28;20246;-68
2023/02/22 16:40:03;;;;;;;15.23;10.23;;;;;;;16.51;50.45;97475.56;8378039;28;20363;-67
2023/02/22 16:44:12;;;;;;;13.37;9.17;;;;;;;16.40;50.80;97482.41;8377680;28;20415;-67
2023/02/22 16:48:17;;;;;;;9.43;8.47;;;;;;;16.29;51.09;97476.34;8376902;28;20252;-67
2023/02/22 16:52:20;;;;;;;17.57;14.13;;;;;;;16.09;51.44;97470.84;8378179;28;20358;-68
2023/02/22 16:56:27;;;;;;;20.07;15.20;;;;;;;16.19;51.39;97478.81;8378287;28;20230;-68
2023/02/22 17:00:33;;;;;;;18.23;11.57;;;;;;;16.16;51.50;97484.25;8378378;28;20558;-69
2023/02/22 17:04:36;;;;;;;9.60;7.37;;;;;;;16.04;51.52;97475.56;8377528;28;20237;-69
2023/02/22 17:08:39;;;;;;;8.77;5.40;;;;;;;16.01;51.92;97487.06;8378176;28;20562;-69
2023/02/22 17:12:46;;;;;;;6.97;5.90;;;;;;;15.92;51.83;97485.16;8410777;28;20226;-69
2023/02/22 17:16:49;;;;;;;11.43;6.93;;;;;;;15.94;52.27;97485.84;8411478;28;20247;-69
2023/02/22 17:20:53;;;;;;;9.37;8.30;;;;;;;15.85;52.03;97488.31;8411343;28;20225;-69
2023/02/22 17:24:56;;;;;;;8.83;6.63;;;;;;;15.97;51.86;97483.03;8411525;28;20245;-68
2023/02/22 17:29:00;;;;;;;9.07;6.30;;;;;;;15.83;52.50;97491.84;8411167;28;20242;-69
2023/02/22 17:33:05;;;;;;;9.37;6.47;;;;;;;15.70;53.00;97490.22;8411327;28;20231;-69
2023/02/22 17:37:08;;;;;;;7.67;5.70;;;;;;;15.59;52.71;97481.41;8410859;28;20563;-69
2023/02/22 17:41:10;;;;;;;13.97;10.93;;;;;;;15.79;52.45;97507.88;8410799;28;20227;-69
2023/02/22 17:45:15;;;;;;;21.97;16.07;;;;;;;15.67;52.51;97485.22;8410999;28;20222;-69
2023/02/22 17:49:18;;;;;;;17.17;12.67;;;;;;;15.64;53.23;97502.78;8411012;28;20293;-69
2023/02/22 17:53:23;;;;;;;9.50;8.27;;;;;;;15.55;53.41;97494.78;8409140;28;20231;-68
2023/02/22 17:57:26;;;;;;;13.00;11.60;;;;;;;16.13;51.95;97508.00;8408979;28;20400;-68
2023/02/22 18:01:33;;;;;;;10.03;8.73;;;;;;;15.51;53.66;97491.56;8416411;28;20241;-68
2023/02/22 18:05:39;;;;;;;46.60;36.33;;;;;;;15.49;53.57;97492.63;8415374;28;20391;-68
2023/02/22 18:09:42;;;;;;;28.40;23.27;;;;;;;15.45;53.90;97499.84;8381689;28;20566;-67
2023/02/22 18:13:51;;;;;;;23.57;18.47;;;;;;;15.45;53.89;97510.28;8382765;28;20266;-69
2023/02/22 18:17:56;;;;;;;17.33;14.47;;;;;;;15.40;54.04;97500.19;8382143;28;20233;-68
2023/02/22 18:22:01;;;;;;;21.13;15.87;;;;;;;15.38;54.13;97496.84;8382804;28;20250;-68
2023/02/22 18:26:08;;;;;;;21.07;16.57;;;;;;;15.31;54.04;97502.59;8382657;28;20292;-68
2023/02/22 18:30:13;;;;;;;20.77;15.10;;;;;;;15.35;54.46;97504.88;8382829;28;20378;-68
2023/02/22 18:34:18;;;;;;;17.00;14.57;;;;;;;15.33;54.51;97503.34;8382463;28;20239;-68
2023/02/22 18:38:23;;;;;;;10.27;9.23;;;;;;;15.20;54.40;97511.19;8382423;28;20229;-68
2023/02/22 18:42:27;;;;;;;9.00;6.87;;;;;;;15.01;54.17;97477.72;8382409;28;20509;-69
2023/02/22 18:46:30;;;;;;;9.60;6.90;;;;;;;15.19;54.40;97506.88;8381997;28;20407;-68
2023/02/22 18:50:34;;;;;;;9.80;7.60;;;;;;;15.16;54.77;97507.94;8382071;28;20534;-69
2023/02/22 18:54:38;;;;;;;10.37;8.13;;;;;;;15.11;54.74;97509.22;8381489;28;20221;-69
2023/02/22 18:58:42;;;;;;;14.43;12.93;;;;;;;15.02;54.76;97492.41;8381823;28;20230;-70
2023/02/22 19:02:45;;;;;;;14.33;11.53;;;;;;;15.06;54.81;97499.13;8380858;28;20229;-69
2023/02/22 19:06:50;;;;;;;13.53;10.50;;;;;;;15.02;55.21;97495.03;8380969;28;20225;-69
2023/02/22 19:10:53;;;;;;;10.87;9.20;;;;;;;15.01;54.86;97496.00;8380328;28;20519;-70
2023/02/22 19:14:57;;;;;;;10.40;8.20;;;;;;;14.99;54.94;97496.09;8381101;28;20228;-69
2023/02/22 19:18:59;;;;;;;12.80;8.70;;;;;;;14.95;54.79;97494.63;8381168;28;20233;-69
2023/02/22 19:23:03;;;;;;;13.90;11.83;;;;;;;14.86;55.58;97497.88;8380695;28;20343;-68